Time;durP1;ratioP1;P1;durP2;ratioP2;P2;SDS_P1;SDS_P2;PMS_P1;PMS_P2;Temp;Humidity;BMP_temperature;BMP_pressure;BME280_temperature;BME280_humidity;BME280_pressure;Samples;Min_cycle;Max_cycle;Signal;HPM_P1;HPM_P2
2021/10/11 00:01:29;;;;;;;40.67;31.37;;;10.10;98.30;;;;;;5074512;23;20507;-82
2021/10/11 00:03:32;;;;;;;46.10;32.00;;;10.10;98.30;;;;;;5075695;23;20416;-83
2021/10/11 00:05:36;;;;;;;40.07;32.67;;;10.10;98.30;;;;;;5076587;23;20535;-83
2021/10/11 00:07:40;;;;;;;44.53;33.13;;;10.10;98.30;;;;;;5077052;23;20523;-82
2021/10/11 00:09:43;;;;;;;43.50;34.03;;;10.10;98.30;;;;;;5083338;23;20428;-82
2021/10/11 00:11:48;;;;;;;39.17;31.77;;;10.10;98.30;;;;;;5075640;23;20438;-83
2021/10/11 00:13:51;;;;;;;45.47;29.13;;;10.10;98.30;;;;;;5075618;23;20847;-83
2021/10/11 00:15:54;;;;;;;44.67;31.30;;;10.20;98.30;;;;;;5074393;23;20438;-82
2021/10/11 00:17:57;;;;;;;44.70;33.90;;;10.20;98.30;;;;;;5074763;23;20438;-82
2021/10/11 00:20:00;;;;;;;47.27;35.30;;;10.10;98.30;;;;;;5074820;23;20816;-82
2021/10/11 00:22:04;;;;;;;42.87;33.43;;;10.20;98.30;;;;;;5074594;23;20459;-82
2021/10/11 00:24:07;;;;;;;44.53;35.20;;;10.20;98.30;;;;;;5074654;23;20454;-82
2021/10/11 00:26:10;;;;;;;44.03;33.70;;;10.20;98.30;;;;;;5074871;23;20428;-82
2021/10/11 00:28:14;;;;;;;44.60;33.83;;;10.20;98.30;;;;;;5074528;23;20503;-83
2021/10/11 00:30:17;;;;;;;43.80;29.90;;;10.20;98.30;;;;;;5074683;23;20432;-82
2021/10/11 00:32:20;;;;;;;43.53;28.47;;;10.20;98.30;;;;;;5074424;23;20938;-83
2021/10/11 00:34:23;;;;;;;43.93;33.20;;;10.20;98.30;;;;;;5074606;23;20531;-82
2021/10/11 00:36:27;;;;;;;48.17;32.23;;;10.30;98.30;;;;;;5074438;23;20431;-82
2021/10/11 00:38:30;;;;;;;48.47;34.37;;;10.30;98.30;;;;;;5074603;23;20455;-83
2021/10/11 00:40:33;;;;;;;44.30;33.60;;;10.40;98.30;;;;;;5074627;23;20428;-82
2021/10/11 00:42:36;;;;;;;51.07;36.87;;;10.40;98.30;;;;;;5075108;23;20976;-83
2021/10/11 00:44:41;;;;;;;51.10;32.13;;;10.50;98.30;;;;;;5076119;23;20443;-83
2021/10/11 00:46:44;;;;;;;50.27;31.97;;;10.50;98.30;;;;;;5076209;23;20435;-83
2021/10/11 00:48:47;;;;;;;49.23;33.20;;;10.40;98.30;;;;;;5075947;23;20543;-82
2021/10/11 00:50:51;;;;;;;52.43;31.30;;;10.40;98.30;;;;;;5076163;23;20435;-82
2021/10/11 00:52:55;;;;;;;50.57;32.83;;;10.50;98.30;;;;;;5075722;23;20768;-82
2021/10/11 00:54:58;;;;;;;45.30;31.57;;;10.50;98.30;;;;;;5067562;23;20456;-84
2021/10/11 00:57:01;;;;;;;48.27;35.07;;;10.50;98.30;;;;;;5075675;23;20928;-83
2021/10/11 00:59:04;;;;;;;55.43;34.73;;;10.50;98.30;;;;;;5076031;23;20907;-83
2021/10/11 01:01:09;;;;;;;46.50;34.97;;;10.50;98.30;;;;;;5075644;23;20900;-83
2021/10/11 01:03:12;;;;;;;52.13;33.80;;;10.60;98.30;;;;;;5075545;23;20997;-83
2021/10/11 01:05:15;;;;;;;58.80;38.77;;;10.60;98.30;;;;;;5075641;23;20780;-82
2021/10/11 01:07:18;;;;;;;54.57;31.50;;;10.70;98.30;;;;;;5076083;23;21128;-82
2021/10/11 01:09:21;;;;;;;57.13;35.93;;;10.70;98.30;;;;;;5075960;23;20442;-84
2021/10/11 01:11:24;;;;;;;53.63;35.40;;;10.80;98.30;;;;;;5075647;23;20964;-82
2021/10/11 01:13:27;;;;;;;52.63;33.50;;;10.90;98.30;;;;;;5075565;23;20543;-83
2021/10/11 01:15:30;;;;;;;48.37;32.17;;;10.90;98.30;;;;;;5075460;23;21040;-82
2021/10/11 01:17:34;;;;;;;50.67;37.23;;;10.90;98.30;;;;;;5075572;23;20431;-82
2021/10/11 01:19:38;;;;;;;56.23;32.10;;;10.90;98.30;;;;;;5075503;23;20432;-83
2021/10/11 01:21:43;;;;;;;51.90;33.27;;;10.90;98.30;;;;;;5075335;23;20434;-82
2021/10/11 01:23:46;;;;;;;49.37;33.67;;;10.90;98.30;;;;;;5075489;23;20435;-83
2021/10/11 01:25:48;;;;;;;54.57;39.37;;;10.90;98.30;;;;;;5075959;23;20463;-82
2021/10/11 01:27:52;;;;;;;49.00;32.57;;;11.00;98.30;;;;;;5068008;23;20768;-82
2021/10/11 01:29:55;;;;;;;46.50;32.40;;;11.00;98.30;;;;;;5075786;23;20863;-83
2021/10/11 01:31:58;;;;;;;50.60;33.63;;;11.10;98.30;;;;;;5075195;23;20432;-82
2021/10/11 01:34:01;;;;;;;46.83;31.97;;;11.10;98.30;;;;;;5075853;23;20447;-83
2021/10/11 01:36:04;;;;;;;56.90;33.90;;;11.00;98.30;;;;;;5067866;23;20511;-82
2021/10/11 01:38:12;;;;;;;53.70;34.47;;;11.00;98.30;;;;;;5067670;23;20764;-82
2021/10/11 01:40:16;;;;;;;48.00;32.37;;;10.90;98.30;;;;;;5075661;23;20427;-82
2021/10/11 01:42:19;;;;;;;54.10;33.33;;;10.90;98.30;;;;;;5075591;23;20443;-83
2021/10/11 01:44:22;;;;;;;51.00;34.00;;;10.90;98.30;;;;;;5070578;23;20551;-83
2021/10/11 01:46:25;;;;;;;54.50;34.03;;;11.00;98.30;;;;;;5079429;23;20516;-83
2021/10/11 01:48:28;;;;;;;52.43;38.90;;;11.00;98.30;;;;;;5078568;23;20458;-83
2021/10/11 01:50:32;;;;;;;54.77;40.90;;;11.10;98.30;;;;;;5080280;23;20935;-83
2021/10/11 01:52:36;;;;;;;52.23;36.13;;;11.10;98.30;;;;;;5078879;23;20518;-83
2021/10/11 01:54:41;;;;;;;54.13;33.30;;;11.00;98.30;;;;;;5079622;23;20486;-83
2021/10/11 01:56:44;;;;;;;59.07;35.37;;;11.00;98.30;;;;;;5075821;23;20507;-83
2021/10/11 01:58:47;;;;;;;57.50;34.87;;;11.00;98.30;;;;;;5075616;23;20503;-83
2021/10/11 02:00:51;;;;;;;50.83;33.83;;;11.10;98.30;;;;;;5067482;23;20442;-83
2021/10/11 02:02:54;;;;;;;53.37;35.10;;;11.00;98.30;;;;;;5075593;23;20423;-82
2021/10/11 02:04:57;;;;;;;59.97;36.30;;;11.10;98.30;;;;;;5075204;23;20458;-82
2021/10/11 02:07:00;;;;;;;52.53;34.27;;;11.00;98.30;;;;;;5075518;23;20426;-83
2021/10/11 02:09:03;;;;;;;59.93;34.60;;;11.00;98.30;;;;;;5075437;23;20454;-83
2021/10/11 02:11:08;;;;;;;54.57;34.47;;;11.00;98.30;;;;;;5075300;23;20432;-84
2021/10/11 02:13:12;;;;;;;58.80;35.50;;;10.90;98.30;;;;;;5075254;23;20516;-83
2021/10/11 02:15:15;;;;;;;62.93;37.70;;;10.80;98.30;;;;;;5074864;23;20535;-82
2021/10/11 02:17:18;;;;;;;55.97;35.10;;;10.80;98.30;;;;;;5075190;23;20809;-83
2021/10/11 02:19:21;;;;;;;58.10;36.30;;;10.80;98.30;;;;;;5075269;23;20419;-83
2021/10/11 02:21:24;;;;;;;64.43;37.63;;;10.70;98.30;;;;;;5074745;23;20451;-83
2021/10/11 02:23:27;;;;;;;63.50;39.13;;;10.80;98.30;;;;;;5067400;23;20955;-82
2021/10/11 02:25:31;;;;;;;64.73;37.63;;;10.80;98.30;;;;;;5075219;23;20532;-83
2021/10/11 02:27:35;;;;;;;59.00;38.60;;;10.70;98.30;;;;;;5075261;23;20438;-83
2021/10/11 02:29:38;;;;;;;63.57;45.63;;;10.70;98.30;;;;;;5075109;23;21242;-83
2021/10/11 02:31:41;;;;;;;59.23;38.07;;;10.60;98.30;;;;;;5066949;23;20742;-82
2021/10/11 02:33:45;;;;;;;68.73;39.73;;;10.70;98.30;;;;;;5074878;23;20458;-82
2021/10/11 02:35:48;;;;;;;73.13;38.30;;;10.60;98.30;;;;;;5075270;23;20452;-82
2021/10/11 02:37:51;;;;;;;67.97;39.63;;;10.60;98.30;;;;;;5075089;23;20420;-83
2021/10/11 02:39:55;;;;;;;68.77;42.60;;;10.60;98.30;;;;;;5075641;23;20424;-83
2021/10/11 02:41:58;;;;;;;68.37;48.17;;;10.60;98.30;;;;;;5074931;23;20424;-82
2021/10/11 02:44:02;;;;;;;72.67;38.47;;;10.60;98.30;;;;;;5075023;23;20466;-82
2021/10/11 02:46:05;;;;;;;69.87;41.23;;;10.50;98.30;;;;;;5075376;23;20390;-83
2021/10/11 02:48:08;;;;;;;67.37;42.33;;;10.50;98.30;;;;;;5067261;23;20470;-82
2021/10/11 02:50:11;;;;;;;64.93;44.80;;;10.60;98.30;;;;;;5074919;23;20434;-82
2021/10/11 02:52:14;;;;;;;71.97;49.93;;;10.60;98.30;;;;;;5066955;23;20511;-83
2021/10/11 02:54:18;;;;;;;68.73;39.53;;;10.60;98.30;;;;;;5075028;23;20470;-82
2021/10/11 02:56:21;;;;;;;66.87;40.70;;;10.60;98.30;;;;;;5074762;23;20444;-82
2021/10/11 02:58:24;;;;;;;73.00;47.20;;;10.60;98.30;;;;;;5067315;23;20446;-83
2021/10/11 03:00:30;;;;;;;69.30;39.73;;;10.50;98.30;;;;;;5066958;23;20483;-83
2021/10/11 03:02:33;;;;;;;69.90;39.63;;;10.50;98.30;;;;;;5075285;23;21199;-82
2021/10/11 03:04:36;;;;;;;76.43;41.70;;;10.50;98.30;;;;;;5074461;23;20486;-82
2021/10/11 03:06:39;;;;;;;72.30;42.37;;;10.50;98.30;;;;;;5075028;23;20432;-83
2021/10/11 03:08:42;;;;;;;75.70;52.33;;;10.50;98.30;;;;;;5075176;23;20426;-82
2021/10/11 03:10:45;;;;;;;71.40;43.00;;;10.50;98.30;;;;;;5074798;23;20511;-83
2021/10/11 03:12:48;;;;;;;79.80;50.03;;;10.50;98.30;;;;;;5066714;23;20443;-82
2021/10/11 03:14:51;;;;;;;79.27;45.07;;;10.50;98.30;;;;;;5066482;23;20460;-83
2021/10/11 03:16:56;;;;;;;81.23;51.33;;;10.40;98.30;;;;;;5074756;23;20839;-83
2021/10/11 03:18:59;;;;;;;88.10;52.77;;;10.40;98.30;;;;;;5075036;23;20482;-83
2021/10/11 03:21:02;;;;;;;84.73;43.30;;;10.40;98.30;;;;;;5074714;23;20428;-83
2021/10/11 03:23:05;;;;;;;86.00;47.37;;;10.50;98.30;;;;;;5074940;23;20428;-82
2021/10/11 03:25:09;;;;;;;82.73;50.23;;;10.50;98.30;;;;;;5074909;23;20450;-82
2021/10/11 03:27:12;;;;;;;92.73;46.80;;;10.50;98.30;;;;;;5074901;23;20526;-82
2021/10/11 03:29:14;;;;;;;109.97;45.07;;;10.40;98.30;;;;;;5067135;23;20464;-83
2021/10/11 03:31:17;;;;;;;113.93;52.70;;;10.50;98.30;;;;;;5066900;23;20487;-83
2021/10/11 03:33:22;;;;;;;129.20;43.90;;;10.50;98.30;;;;;;5065712;23;20429;-83
2021/10/11 03:35:28;;;;;;;131.37;53.77;;;10.50;98.30;;;;;;5075147;23;20474;-83
2021/10/11 03:37:31;;;;;;;105.03;47.50;;;10.40;98.30;;;;;;5075144;23;20818;-83
2021/10/11 03:39:35;;;;;;;87.87;54.47;;;10.50;98.30;;;;;;5075218;23;20428;-82
2021/10/11 03:41:38;;;;;;;129.23;47.40;;;10.50;98.30;;;;;;5074609;23;20434;-83
2021/10/11 03:43:41;;;;;;;106.43;46.20;;;10.50;98.30;;;;;;5075405;23;20523;-82
2021/10/11 03:45:43;;;;;;;141.43;50.17;;;10.60;98.30;;;;;;5074898;23;20485;-83
2021/10/11 03:47:46;;;;;;;101.67;43.20;;;10.60;98.30;;;;;;5075307;23;20924;-83
2021/10/11 03:49:51;;;;;;;91.83;43.47;;;10.70;98.30;;;;;;5067924;23;20435;-82
2021/10/11 03:51:54;;;;;;;80.93;47.67;;;10.70;98.30;;;;;;5091849;23;20427;-83
2021/10/11 03:53:57;;;;;;;85.97;45.90;;;10.70;98.30;;;;;;5092157;23;20435;-83
2021/10/11 03:56:00;;;;;;;81.73;42.87;;;10.80;98.30;;;;;;5091365;23;20455;-83
2021/10/11 03:58:03;;;;;;;78.23;42.57;;;10.90;98.30;;;;;;5080227;23;20428;-83
2021/10/11 04:00:08;;;;;;;76.13;39.17;;;10.90;98.30;;;;;;5077815;23;20427;-84
2021/10/11 04:02:11;;;;;;;72.27;39.00;;;11.00;98.30;;;;;;5070781;23;20427;-83
2021/10/11 04:04:14;;;;;;;69.43;38.07;;;11.10;98.30;;;;;;5075225;23;20459;-83
2021/10/11 04:06:18;;;;;;;69.67;36.80;;;11.10;98.30;;;;;;5076320;23;20503;-82
2021/10/11 04:08:23;;;;;;;62.37;36.53;;;11.20;98.30;;;;;;5076955;23;20430;-83
2021/10/11 04:10:28;;;;;;;62.00;35.83;;;11.20;98.30;;;;;;5077328;23;20515;-83
2021/10/11 04:12:35;;;;;;;70.00;39.73;;;11.20;98.30;;;;;;5084112;23;20499;-82
2021/10/11 04:14:38;;;;;;;75.97;41.90;;;11.20;98.30;;;;;;5082084;23;20483;-82
2021/10/11 04:16:41;;;;;;;80.90;42.73;;;11.30;98.30;;;;;;5091499;23;20444;-84
2021/10/11 04:18:44;;;;;;;60.33;36.27;;;11.30;98.30;;;;;;5092215;23;20424;-83
2021/10/11 04:20:47;;;;;;;55.50;33.83;;;11.40;98.30;;;;;;5092969;23;21168;-83
2021/10/11 04:22:52;;;;;;;65.10;32.40;;;11.40;98.30;;;;;;5087168;23;20420;-83
2021/10/11 04:24:55;;;;;;;60.60;33.90;;;11.30;98.30;;;;;;5077985;23;20446;-83
2021/10/11 04:26:58;;;;;;;60.17;34.00;;;11.30;98.30;;;;;;5076401;23;20799;-82
2021/10/11 04:29:01;;;;;;;57.10;33.80;;;11.20;98.30;;;;;;5068112;23;20438;-82
2021/10/11 04:31:04;;;;;;;60.10;33.50;;;11.10;98.30;;;;;;5075725;23;20519;-83
2021/10/11 04:33:07;;;;;;;60.67;37.90;;;11.10;98.30;;;;;;5076335;23;20503;-82
2021/10/11 04:35:16;;;;;;;55.00;32.90;;;11.10;98.30;;;;;;5068114;23;20462;-82
2021/10/11 04:37:19;;;;;;;58.87;33.10;;;11.10;98.30;;;;;;5075737;23;20448;-82
2021/10/11 04:39:23;;;;;;;55.90;33.07;;;11.20;98.30;;;;;;5076480;23;20911;-84
2021/10/11 04:41:27;;;;;;;47.37;30.97;;;11.20;98.30;;;;;;5075649;23;20455;-83
2021/10/11 04:43:30;;;;;;;47.33;30.60;;;11.20;98.30;;;;;;5075892;23;20431;-83
2021/10/11 04:45:33;;;;;;;51.97;31.13;;;11.30;98.30;;;;;;5075978;23;20453;-82
2021/10/11 04:47:36;;;;;;;53.13;30.10;;;11.30;98.30;;;;;;5076172;23;20793;-82
2021/10/11 04:49:39;;;;;;;45.23;28.90;;;11.30;98.30;;;;;;5076119;23;20434;-83
2021/10/11 04:51:42;;;;;;;53.07;30.73;;;11.30;98.30;;;;;;5075742;23;20428;-82
2021/10/11 04:53:45;;;;;;;46.50;29.70;;;11.30;98.30;;;;;;5076189;23;20506;-83
2021/10/11 04:55:49;;;;;;;52.57;28.90;;;11.30;98.30;;;;;;5076109;23;20506;-83
2021/10/11 04:57:52;;;;;;;51.77;30.70;;;11.40;98.30;;;;;;5067972;23;20432;-82
2021/10/11 04:59:55;;;;;;;45.77;27.67;;;11.40;98.30;;;;;;5075732;23;20503;-83
2021/10/11 05:01:58;;;;;;;47.20;28.43;;;11.40;98.30;;;;;;5075434;23;20797;-83
2021/10/11 05:04:01;;;;;;;49.10;28.37;;;11.40;98.30;;;;;;5067723;23;20980;-83
2021/10/11 05:20:33;;;;;;;42.13;26.33;;;11.50;98.30;;;;;;5064665;23;20462;-84
2021/10/11 13:26:08;;;;;;;6.90;2.80;;;24.90;76.50;;;;;;4151237;28;21148;-84
2021/10/11 14:29:50;;;;;;;7.83;4.97;;;22.10;81.50;;;;;;4122564;28;20559;-85
2021/10/11 19:42:33;;;;;;;7.70;4.70;;;12.30;98.30;;;;;;4065195;29;20491;-84
2021/10/11 19:45:23;;;;;;;10.40;4.37;;;12.20;98.30;;;;;;4062637;29;20479;-85
